Time;durP1;ratioP1;P1;durP2;ratioP2;P2;SDS_P1;SDS_P2;PMS_P1;PMS_P2;Temp;Humidity;BMP_temperature;BMP_pressure;BME280_temperature;BME280_humidity;BME280_pressure;Samples;Min_cycle;Max_cycle;Signal;HPM_P1;HPM_P2
2021/06/24 00:02:15;;;;;;;41.83;18.13;;;;;;;21.10;76.27;101112.59;5029557;28;20197;-87
2021/06/24 00:04:41;;;;;;;37.53;17.07;;;;;;;22.53;76.47;101334.41;5029456;28;20189;-86
2021/06/24 00:07:07;;;;;;;38.07;16.50;;;;;;;20.58;76.39;101058.06;5029301;28;20161;-87
2021/06/24 00:09:32;;;;;;;39.03;16.23;;;;;;;20.28;76.18;100977.03;5029445;28;20637;-87
2021/06/24 00:11:58;;;;;;;39.93;16.37;;;;;;;20.75;75.88;101080.84;5029091;28;20174;-86
2021/06/24 00:14:23;;;;;;;33.13;15.83;;;;;;;20.62;75.72;101071.97;5012827;28;20185;-86
2021/06/24 00:16:49;;;;;;;41.10;16.40;;;;;;;20.28;75.95;101005.19;5029101;28;20187;-87
2021/06/24 00:19:14;;;;;;;37.57;16.70;;;;;;;20.95;75.88;101080.88;5029209;28;20192;-87
2021/06/24 00:21:40;;;;;;;40.00;16.60;;;;;;;20.36;75.52;101020.41;5045684;28;20185;-87
2021/06/24 00:24:05;;;;;;;39.00;17.30;;;;;;;21.54;75.60;101195.69;5012467;28;20173;-86
2021/06/24 00:26:31;;;;;;;40.80;16.87;;;;;;;21.50;75.97;101177.44;5012827;28;20188;-87
2021/06/24 00:28:57;;;;;;;35.53;16.63;;;;;;;21.87;76.36;101263.03;5012692;28;20307;-86
2021/06/24 00:31:22;;;;;;;39.67;18.23;;;;;;;20.50;76.42;101061.78;5028851;28;20191;-87
2021/06/24 00:33:48;;;;;;;37.87;18.17;;;;;;;21.11;76.70;101156.41;5029151;28;20176;-86
2021/06/24 00:36:13;;;;;;;37.80;18.97;;;;;;;19.71;76.66;100933.69;5028986;28;20177;-87
2021/06/24 00:38:39;;;;;;;37.07;18.73;;;;;;;22.45;76.64;101351.03;5012504;28;20715;-86
2021/06/24 00:41:04;;;;;;;46.70;19.70;;;;;;;20.28;76.86;101036.13;5028826;28;20181;-87
2021/06/24 00:43:30;;;;;;;38.17;16.80;;;;;;;22.14;76.36;101276.69;5028770;28;20169;-86
2021/06/24 00:45:55;;;;;;;37.30;18.60;;;;;;;19.88;76.33;100954.41;5012456;28;20192;-87
2021/06/24 00:48:21;;;;;;;39.90;18.37;;;;;;;21.77;76.79;101256.78;5028728;28;20248;-86
2021/06/24 00:50:47;;;;;;;38.60;18.90;;;;;;;22.78;77.37;101398.63;5012442;28;20197;-87
2021/06/24 00:53:13;;;;;;;36.30;19.00;;;;;;;19.92;77.01;100969.84;5012976;28;20254;-87
2021/06/24 00:55:40;;;;;;;43.70;19.50;;;;;;;20.01;77.11;100986.56;5032509;28;20189;-87
2021/06/24 00:58:16;;;;;;;33.10;18.80;;;;;;;22.72;77.47;101417.59;5032995;28;20197;-86
2021/06/24 01:00:43;;;;;;;39.93;19.03;;;;;;;20.16;77.12;101031.63;5049286;28;20184;-87
2021/06/24 01:03:08;;;;;;;37.23;18.97;;;;;;;22.06;76.83;101289.72;5032632;28;20187;-86
2021/06/24 01:05:37;;;;;;;37.60;19.13;;;;;;;22.62;76.81;101373.81;5032935;28;20161;-86
2021/06/24 01:08:04;;;;;;;34.53;18.53;;;;;;;22.33;77.18;101382.41;5016334;28;20240;-86
2021/06/24 01:10:30;;;;;;;33.37;18.93;;;;;;;20.05;77.60;101040.59;5032523;28;20223;-86
2021/06/24 01:12:56;;;;;;;38.80;20.70;;;;;;;21.02;77.87;101148.09;5016269;28;20557;-87
2021/06/24 01:15:21;;;;;;;39.43;21.07;;;;;;;22.33;78.33;101373.94;5032460;28;20181;-87
2021/06/24 01:17:47;;;;;;;44.93;21.07;;;;;;;22.36;78.36;101362.44;5016240;28;20322;-87
2021/06/24 01:20:13;;;;;;;36.77;20.80;;;;;;;19.98;78.29;101037.41;5032664;28;20620;-86
2021/06/24 01:22:39;;;;;;;44.37;21.17;;;;;;;21.84;78.86;101275.31;5032402;28;20184;-86
2021/06/24 01:25:04;;;;;;;40.10;21.87;;;;;;;19.76;79.02;100959.06;5032557;28;20181;-86
2021/06/24 01:27:30;;;;;;;40.97;24.10;;;;;;;20.49;79.91;101068.69;5015795;28;20280;-86
2021/06/24 01:29:55;;;;;;;40.03;24.03;;;;;;;21.89;80.53;101314.09;5032193;28;20188;-86
2021/06/24 01:32:21;;;;;;;42.37;22.60;;;;;;;22.40;80.46;101359.38;5015803;28;20176;-86
2021/06/24 01:34:46;;;;;;;36.50;23.30;;;;;;;19.97;80.17;101004.94;5032205;28;20174;-86
2021/06/24 01:37:12;;;;;;;41.33;23.90;;;;;;;19.43;80.28;100989.44;5048597;28;20522;-87
2021/06/24 01:39:38;;;;;;;41.30;23.47;;;;;;;22.45;80.61;101387.72;5015746;28;20185;-87
2021/06/24 01:42:03;;;;;;;47.30;24.77;;;;;;;19.77;80.30;100980.34;5015541;28;20240;-86
2021/06/24 01:44:30;;;;;;;40.90;22.40;;;;;;;22.71;80.49;101439.41;5031944;28;20177;-87
2021/06/24 01:46:55;;;;;;;43.00;21.47;;;;;;;20.57;79.91;101112.84;5031650;28;20181;-86
2021/06/24 01:49:21;;;;;;;43.23;21.83;;;;;;;20.09;79.77;101027.16;5031895;28;20185;-86
2021/06/24 01:51:46;;;;;;;37.13;21.30;;;;;;;21.85;79.60;101302.28;5048139;28;20534;-87
2021/06/24 01:54:12;;;;;;;39.63;19.77;;;;;;;20.77;79.39;101160.75;5031814;28;20180;-86
2021/06/24 01:56:38;;;;;;;37.80;17.70;;;;;;;20.51;79.00;101102.75;5015238;28;20181;-87
2021/06/24 01:59:03;;;;;;;42.83;18.13;;;;;;;21.65;78.66;101310.69;5031393;28;20277;-87
2021/06/24 02:01:29;;;;;;;32.27;18.97;;;;;;;22.27;78.87;101398.53;5031671;28;20177;-86
2021/06/24 02:03:54;;;;;;;35.17;18.17;;;;;;;20.70;78.68;101144.28;5031883;28;20173;-87
2021/06/24 02:06:20;;;;;;;42.10;19.83;;;;;;;19.51;78.53;100984.22;5047322;28;20201;-86
2021/06/24 02:08:45;;;;;;;36.00;19.13;;;;;;;20.77;79.03;101202.25;5031585;28;20181;-86
2021/06/24 02:11:11;;;;;;;36.63;19.10;;;;;;;20.01;78.93;101079.41;5015066;28;20185;-86
2021/06/24 02:13:36;;;;;;;34.67;20.00;;;;;;;21.29;78.86;101288.66;5015128;28;20200;-85
2021/06/24 02:16:02;;;;;;;40.53;22.10;;;;;;;21.50;79.37;101346.63;5014844;28;20189;-86
2021/06/24 02:18:27;;;;;;;43.20;22.90;;;;;;;20.35;79.73;101188.50;5014712;28;20212;-86
2021/06/24 02:20:53;;;;;;;45.87;22.97;;;;;;;21.51;79.61;101340.50;5031290;28;20181;-86
2021/06/24 02:23:18;;;;;;;39.70;20.97;;;;;;;19.10;79.04;100965.56;5031121;28;20169;-86
2021/06/24 02:25:44;;;;;;;41.30;21.73;;;;;;;19.65;78.97;101060.13;5031314;28;20173;-87
2021/06/24 02:28:09;;;;;;;42.90;21.50;;;;;;;19.61;78.95;101042.69;5031150;28;20173;-86
2021/06/24 02:30:35;;;;;;;35.30;21.30;;;;;;;21.45;78.97;101319.13;5031345;28;20180;-86
2021/06/24 02:33:01;;;;;;;41.80;22.83;;;;;;;19.61;79.13;101042.69;5014751;28;20173;-87
2021/06/24 02:35:26;;;;;;;43.40;23.33;;;;;;;19.96;79.40;101127.91;5031123;28;20180;-86
2021/06/24 02:37:54;;;;;;;40.37;23.73;;;;;;;21.51;79.93;101356.63;5030756;28;20278;-86
2021/06/24 02:40:20;;;;;;;39.90;24.73;;;;;;;21.42;80.42;101351.91;5031578;28;20184;-86
2021/06/24 02:42:45;;;;;;;42.07;24.43;;;;;;;21.40;80.46;101356.47;5014671;28;20177;-86
2021/06/24 02:45:11;;;;;;;41.23;25.13;;;;;;;20.91;80.58;101297.25;5030955;28;20260;-86
2021/06/24 02:47:37;;;;;;;37.23;24.83;;;;;;;19.48;80.51;101083.56;5047584;28;20164;-87
2021/06/24 02:50:07;;;;;;;39.40;25.13;;;;;;;18.97;80.60;101012.78;5014570;28;20185;-87
2021/06/24 02:52:32;;;;;;;40.37;25.27;;;;;;;19.29;80.16;101031.59;5030767;28;20229;-86
2021/06/24 02:54:58;;;;;;;41.97;25.47;;;;;;;19.73;80.50;101111.91;5030584;28;20172;-87
2021/06/24 02:57:23;;;;;;;44.10;26.03;;;;;;;21.21;80.58;101350.28;5014066;28;20211;-86
2021/06/24 02:59:49;;;;;;;41.30;24.60;;;;;;;21.40;80.75;101367.75;5014050;28;20207;-86
2021/06/24 03:02:14;;;;;;;45.13;26.23;;;;;;;19.50;80.63;101075.44;5013834;28;20187;-86
2021/06/24 03:04:40;;;;;;;39.37;24.07;;;;;;;19.70;80.72;101101.63;5013865;28;20243;-87
2021/06/24 03:07:06;;;;;;;41.77;25.60;;;;;;;19.93;80.49;101111.25;5030355;28;20169;-86
2021/06/24 03:09:32;;;;;;;51.67;27.60;;;;;;;19.63;81.32;101082.34;5030118;28;20199;-86
2021/06/24 03:11:57;;;;;;;45.00;26.43;;;;;;;19.78;81.53;101069.06;5013649;28;20192;-86
2021/06/24 03:14:23;;;;;;;46.23;26.73;;;;;;;21.54;81.71;101345.16;5013851;28;20188;-86
2021/06/24 03:16:48;;;;;;;43.83;26.63;;;;;;;21.90;81.33;101372.13;5029082;28;20181;-86
2021/06/24 03:19:14;;;;;;;47.43;26.50;;;;;;;20.57;81.39;101191.69;5013882;28;20184;-87
2021/06/24 03:21:40;;;;;;;45.13;26.87;;;;;;;19.97;81.32;101098.53;5029941;28;20177;-86
2021/06/24 03:24:09;;;;;;;38.97;25.90;;;;;;;19.90;81.34;101086.91;5013799;28;20185;-86
2021/06/24 03:26:34;;;;;;;46.53;25.63;;;;;;;21.31;81.24;101274.81;5029843;28;20201;-86
2021/06/24 03:29:00;;;;;;;40.97;23.33;;;;;;;20.10;80.15;101068.09;5013400;28;20691;-86
2021/06/24 03:31:26;;;;;;;40.37;22.37;;;;;;;22.19;80.14;101384.06;5013577;28;20181;-86
2021/06/24 03:33:52;;;;;;;31.77;22.33;;;;;;;22.57;80.33;101445.91;5013352;28;20681;-86
2021/06/24 03:36:18;;;;;;;42.93;23.93;;;;;;;20.53;79.97;101160.13;5029659;28;20165;-86
2021/06/24 03:38:46;;;;;;;36.50;22.50;;;;;;;21.99;80.03;101394.53;5029919;28;20247;-86
2021/06/24 03:41:12;;;;;;;38.20;22.90;;;;;;;21.03;79.88;101206.00;5029972;28;20207;-87
2021/06/24 03:43:38;;;;;;;39.53;21.10;;;;;;;22.61;79.30;101476.78;5029792;28;20173;-86
2021/06/24 03:46:03;;;;;;;36.57;19.27;;;;;;;20.79;78.67;101154.66;5013185;28;20189;-86
2021/06/24 03:48:29;;;;;;;46.80;21.10;;;;;;;21.41;78.37;101245.25;5029471;28;20223;-87
2021/06/24 03:50:54;;;;;;;43.90;21.43;;;;;;;19.84;78.37;101016.50;5046010;28;20165;-86
2021/06/24 03:53:20;;;;;;;40.90;17.50;;;;;;;21.21;77.98;101197.28;5029382;28;20223;-86
2021/06/24 03:55:45;;;;;;;44.73;19.57;;;;;;;21.70;77.59;101262.06;5013178;28;20199;-86
2021/06/24 03:58:13;;;;;;;44.13;19.23;;;;;;;22.98;77.97;101461.53;5029286;28;20390;-86
2021/06/24 04:00:43;;;;;;;42.30;19.73;;;;;;;21.05;77.37;101149.94;5013181;28;20200;-86
2021/06/24 04:03:09;;;;;;;34.17;18.43;;;;;;;20.94;77.04;101158.22;5013359;28;20177;-86
2021/06/24 04:05:35;;;;;;;43.37;19.90;;;;;;;21.63;77.18;101237.06;5012999;28;20219;-86
2021/06/24 04:08:01;;;;;;;45.00;21.07;;;;;;;19.42;77.59;100914.84;5029507;28;20177;-86
2021/06/24 04:10:27;;;;;;;39.57;20.67;;;;;;;20.66;77.48;101121.19;5029475;28;20162;-87
2021/06/24 04:12:54;;;;;;;39.20;22.17;;;;;;;20.62;78.06;101103.69;5028583;28;20188;-84
2021/06/24 04:15:22;;;;;;;46.97;21.50;;;;;;;20.20;78.14;101088.44;5013104;28;20180;-84
2021/06/24 04:17:48;;;;;;;36.07;20.80;;;;;;;22.43;78.23;101424.16;5029055;28;20201;-84
2021/06/24 04:20:14;;;;;;;33.10;20.40;;;;;;;21.02;77.29;101171.41;5012576;28;20282;-84
2021/06/24 04:22:39;;;;;;;46.93;21.07;;;;;;;23.21;76.50;101511.41;5029077;28;20256;-84
2021/06/24 04:25:06;;;;;;;51.90;22.07;;;;;;;21.69;76.00;101277.44;5012556;28;20761;-84
2021/06/24 04:27:31;;;;;;;47.73;21.67;;;;;;;23.27;75.66;101511.47;5012716;28;20601;-84
2021/06/24 04:29:57;;;;;;;41.00;21.60;;;;;;;22.61;75.16;101327.06;5028669;28;20183;-85
2021/06/24 04:32:22;;;;;;;42.13;21.07;;;;;;;21.49;75.22;101142.03;5012372;28;20177;-85
2021/06/24 04:34:48;;;;;;;42.73;19.97;;;;;;;21.21;75.33;101107.09;5028725;28;20635;-85
2021/06/24 04:37:13;;;;;;;49.00;23.33;;;;;;;20.11;75.80;100931.75;5027922;28;20248;-85
2021/06/24 04:44:23;;;;;;;38.50;22.00;;;;;;;23.96;74.99;101458.06;5083153;28;20554;-75
2021/06/24 04:46:49;;;;;;;44.73;20.83;;;;;;;23.93;74.75;101435.66;5081528;28;20255;-75
2021/06/24 04:49:16;;;;;;;44.43;22.40;;;;;;;23.80;74.26;101399.25;5081377;28;20172;-75
2021/06/24 04:51:42;;;;;;;43.03;22.87;;;;;;;24.16;74.51;101455.09;5081580;28;20170;-76
2021/06/24 04:54:08;;;;;;;43.40;22.70;;;;;;;23.99;74.56;101428.75;5114806;28;20176;-76
2021/06/24 04:56:33;;;;;;;45.43;23.50;;;;;;;23.92;75.55;101483.00;5063910;28;20170;-74
2021/06/24 04:58:59;;;;;;;42.63;23.53;;;;;;;23.88;75.81;101433.53;5047595;28;20187;-75
2021/06/24 05:01:24;;;;;;;42.20;21.87;;;;;;;23.60;74.96;101359.00;5047561;28;20184;-77
2021/06/24 05:03:50;;;;;;;42.43;22.13;;;;;;;23.74;74.62;101370.16;5064676;28;20206;-75
2021/06/24 05:06:16;;;;;;;53.30;21.23;;;;;;;22.84;74.26;101202.44;5081362;28;20190;-75
2021/06/24 05:08:42;;;;;;;42.87;20.33;;;;;;;23.82;74.26;101325.94;5048483;28;20199;-76
2021/06/24 05:13:16;;;;;;;37.90;18.47;;;;;;;24.64;74.41;101389.91;5138285;27;20559;-82
2021/06/24 05:15:45;;;;;;;42.03;18.47;;;;;;;25.42;73.81;101453.97;5090108;28;20179;-77
2021/06/24 05:22:21;;;;;;;36.53;16.07;;;;;;;26.66;69.13;101358.94;5144040;27;20537;-77
2021/06/24 05:27:33;;;;;;;35.43;12.27;;;;;;;;;;5083334;28;20821;-73
2021/06/24 05:33:09;;;;;;;25.80;11.40;;;;;;;28.10;63.72;101484.56;5083528;28;20542;-81
2021/06/24 05:35:35;;;;;;;27.20;11.30;;;;;;;28.17;62.92;101484.75;5082139;28;20251;-79
2021/06/24 06:40:43;;;;;;;23.55;10.70;;;;;;;28.60;55.78;101222.44;5150316;27;20570;-87
2021/06/24 06:43:08;;;;;;;29.67;13.02;;;;;;;28.09;56.62;101198.09;5094850;28;20226;-90
2021/06/24 06:45:35;;;;;;;26.23;12.90;;;;;;;29.08;58.38;101447.59;5073967;28;20186;-88
2021/06/24 06:48:01;;;;;;;27.42;12.50;;;;;;;27.28;58.46;101173.00;5072393;28;20181;-88
2021/06/24 06:50:27;;;;;;;22.48;10.95;;;;;;;27.32;57.65;101133.59;5088899;28;20167;-93
2021/06/24 06:52:52;;;;;;;24.02;10.13;;;;;;;28.48;56.99;101287.44;5089258;28;20202;-87
2021/06/24 06:55:18;;;;;;;23.23;10.00;;;;;;;28.51;57.04;101279.88;5072756;28;20178;-86
2021/06/24 06:57:44;;;;;;;23.67;9.70;;;;;;;27.03;57.06;101057.66;5105691;28;20202;-86
2021/06/24 07:00:10;;;;;;;23.30;10.75;;;;;;;28.19;57.57;101242.75;5088454;28;20190;-89
2021/06/24 07:02:38;;;;;;;23.63;11.00;;;;;;;29.19;58.37;101451.06;5105726;28;20192;-84
2021/06/24 07:05:05;;;;;;;30.63;11.63;;;;;;;27.75;58.92;101191.28;5089137;28;20166;-87
2021/06/24 07:07:31;;;;;;;28.42;11.00;;;;;;;29.38;57.99;101419.63;5089541;28;20661;-89
2021/06/24 07:09:57;;;;;;;24.77;11.35;;;;;;;27.49;58.33;101111.41;5089120;28;20178;-87
2021/06/24 07:12:22;;;;;;;25.10;11.55;;;;;;;27.61;58.16;101144.88;5072392;28;20170;-87
2021/06/24 07:14:48;;;;;;;26.00;12.07;;;;;;;28.97;57.66;101357.22;5072189;28;20269;-87
2021/06/24 07:17:13;;;;;;;28.15;11.70;;;;;;;27.74;56.45;101167.72;5089164;28;20171;-87
2021/06/24 07:19:39;;;;;;;27.92;12.55;;;;;;;27.15;56.99;101064.72;5071795;28;20700;-90
2021/06/24 07:22:05;;;;;;;34.60;12.45;;;;;;;29.01;57.79;101376.91;5071538;28;20551;-87
2021/06/24 07:24:30;;;;;;;25.67;11.60;;;;;;;28.98;56.32;101375.13;5088503;28;20174;-86
2021/06/24 07:26:56;;;;;;;24.20;11.68;;;;;;;27.85;56.24;101184.69;5088154;28;20165;-90
2021/06/24 07:29:21;;;;;;;26.48;12.13;;;;;;;28.93;56.82;101338.84;5071069;28;20171;-86
2021/06/24 07:31:47;;;;;;;26.73;12.32;;;;;;;28.09;56.80;101220.88;5070763;28;20174;-86
2021/06/24 07:34:12;;;;;;;31.77;12.38;;;;;;;27.94;56.33;101163.59;5087144;28;20633;-89
2021/06/24 07:36:39;;;;;;;26.80;11.52;;;;;;;29.97;56.93;101459.88;5071147;28;20205;-85
2021/06/24 07:39:05;;;;;;;25.60;12.38;;;;;;;27.90;57.89;101158.19;5070913;28;20234;-86
2021/06/24 07:41:30;;;;;;;25.60;12.02;;;;;;;27.57;57.06;101098.06;5071565;28;20238;-91
2021/06/24 07:43:56;;;;;;;37.65;12.60;;;;;;;28.22;56.39;101175.34;5070877;28;20189;-87
2021/06/24 07:46:23;;;;;;;29.38;11.90;;;;;;;28.09;56.57;101158.94;5087523;28;20272;-91
2021/06/24 07:48:49;;;;;;;25.63;11.98;;;;;;;28.26;55.52;101155.84;5088543;28;20175;-88
2021/06/24 07:51:15;;;;;;;29.80;11.82;;;;;;;28.94;56.26;101237.66;5057649;28;20179;-88
2021/06/24 07:53:43;;;;;;;24.58;11.57;;;;;;;28.28;57.23;101151.16;5057980;28;20281;-88
2021/06/24 07:56:10;;;;;;;26.85;11.10;;;;;;;28.19;56.62;101130.81;5059259;28;20175;-87
2021/06/24 07:58:36;;;;;;;28.70;12.05;;;;;;;28.51;56.76;101182.94;5074362;28;20211;-89
2021/06/24 08:01:01;;;;;;;26.20;11.30;;;;;;;29.70;56.46;101348.97;5058013;28;20182;-90
2021/06/24 08:03:27;;;;;;;29.55;11.23;;;;;;;28.91;56.17;101190.28;5057978;28;20186;-89
2021/06/24 08:05:53;;;;;;;29.70;11.68;;;;;;;28.95;55.92;101187.84;5058137;28;20214;-92
2021/06/24 08:08:18;;;;;;;26.13;11.77;;;;;;;31.00;55.27;101500.44;5058264;28;20210;-88
2021/06/24 08:10:44;;;;;;;28.42;11.20;;;;;;;28.68;55.38;101087.22;5057823;28;20673;-93
2021/06/24 08:13:09;;;;;;;20.77;10.82;;;;;;;30.16;55.26;101291.13;5057518;28;20171;-90
2021/06/24 08:15:35;;;;;;;27.77;11.13;;;;;;;30.09;54.56;101303.22;5057944;28;20187;-93
2021/06/24 08:18:00;;;;;;;24.67;11.27;;;;;;;30.43;55.51;101362.03;5057541;28;20214;-88
2021/06/24 08:20:26;;;;;;;29.42;11.07;;;;;;;30.29;56.00;101314.75;5057546;28;20190;-92
2021/06/24 08:22:53;;;;;;;31.40;11.55;;;;;;;29.05;55.78;101111.94;5057586;28;20190;-87
2021/06/24 08:25:19;;;;;;;26.00;11.65;;;;;;;30.79;55.11;101353.69;5058114;28;20206;-91
2021/06/24 08:27:44;;;;;;;27.52;12.07;;;;;;;29.63;54.83;101159.00;5057052;28;20188;-89
2021/06/24 08:30:10;;;;;;;29.88;10.82;;;;;;;30.71;54.01;101318.50;5057379;28;20648;-88
2021/06/24 08:32:37;;;;;;;25.33;11.15;;;;;;;29.94;53.47;101209.47;5074368;28;20191;-89
2021/06/24 08:35:05;;;;;;;30.25;12.10;;;;;;;29.60;54.22;101176.47;5057400;28;20187;-89
2021/06/24 08:37:30;;;;;;;26.10;11.30;;;;;;;29.71;53.88;101177.03;5073058;28;20179;-90
2021/06/24 08:39:56;;;;;;;26.60;11.57;;;;;;;30.32;53.22;101202.13;5057079;28;20216;-89
2021/06/24 08:42:22;;;;;;;26.90;11.25;;;;;;;30.38;52.71;101227.72;5057623;28;20175;-87
2021/06/24 08:44:55;;;;;;;29.45;12.07;;;;;;;30.17;51.88;101184.81;5056796;28;20183;-89
2021/06/24 08:47:24;;;;;;;30.20;11.95;;;;;;;30.44;52.35;101197.66;5075105;28;20187;-89
2021/06/24 08:49:49;;;;;;;25.15;10.85;;;;;;;30.53;52.25;101205.78;5056979;28;20183;-88
2021/06/24 08:52:15;;;;;;;27.33;11.82;;;;;;;30.68;51.86;101205.16;5056529;28;20186;-90
2021/06/24 08:54:40;;;;;;;28.00;11.50;;;;;;;30.73;52.40;101187.88;5056314;28;20213;-90
2021/06/24 08:57:06;;;;;;;27.50;12.55;;;;;;;31.53;53.10;101353.63;5056642;28;20204;-88
2021/06/24 08:59:32;;;;;;;21.67;11.52;;;;;;;30.44;52.58;101174.00;5056634;28;20241;-91
2021/06/24 09:01:58;;;;;;;28.92;13.18;;;;;;;30.79;52.46;101194.22;5056824;28;20191;-94
2021/06/24 09:04:30;;;;;;;32.13;14.55;;;;;;;32.44;52.47;101461.91;5074096;28;20256;-92
2021/06/24 09:07:22;;;;;;;31.50;14.23;;;;;;;32.57;52.20;101444.56;5057135;28;20186;-90
2021/06/24 09:09:52;;;;;;;36.03;14.10;;;;;;;30.06;52.38;101087.09;5074364;28;20214;-90
2021/06/24 09:12:18;;;;;;;30.20;12.00;;;;;;;30.31;53.07;101119.78;5074568;28;20182;-93
2021/06/24 09:14:49;;;;;;;29.33;12.02;;;;;;;32.92;52.29;101475.34;5057148;28;20183;-91
2021/06/24 09:17:39;;;;;;;24.52;11.27;;;;;;;33.06;52.39;101488.22;5073818;28;20207;-88
2021/06/24 09:20:26;;;;;;;28.58;11.32;;;;;;;32.78;51.19;101413.69;4985281;28;20218;-85
2021/06/24 09:23:10;;;;;;;21.70;11.35;;;;;;;33.23;51.10;101464.72;4953547;28;20195;-85
2021/06/24 09:25:38;;;;;;;27.40;11.48;;;;;;;33.04;50.61;101418.31;4971329;28;20202;-84
2021/06/24 09:28:05;;;;;;;25.55;11.13;;;;;;;33.31;50.39;101451.16;4954679;28;20174;-79
2021/06/24 09:30:32;;;;;;;25.63;11.00;;;;;;;33.42;50.48;101482.41;4938856;28;20179;-85
2021/06/24 09:33:06;;;;;;;29.08;10.98;;;;;;;32.76;50.31;101370.38;4970868;28;20206;-78
2021/06/24 09:35:32;;;;;;;20.77;11.18;;;;;;;33.48;50.28;101485.88;4970782;28;20183;-85
2021/06/24 09:38:01;;;;;;;24.50;11.15;;;;;;;30.18;50.50;100982.59;4954470;28;20214;-82
2021/06/24 09:40:47;;;;;;;27.67;10.27;;;;;;;33.39;50.23;101475.72;4955326;28;20245;-85
2021/06/24 09:43:34;;;;;;;23.70;10.00;;;;;;;33.19;50.12;101462.22;4970492;28;20190;-78
2021/06/24 09:46:19;;;;;;;25.88;11.05;;;;;;;33.21;50.19;101462.41;4969795;28;20187;-77
2021/06/24 09:49:03;;;;;;;27.73;10.35;;;;;;;32.58;50.14;101339.91;4954393;28;20183;-85
2021/06/24 09:51:33;;;;;;;23.45;9.80;;;;;;;33.04;49.72;101399.00;4956099;28;20183;-84
2021/06/24 09:54:06;;;;;;;27.90;10.68;;;;;;;32.68;49.51;101340.13;4970014;28;20191;-85
2021/06/24 09:56:38;;;;;;;24.17;10.63;;;;;;;33.41;50.26;101460.75;4954778;28;20171;-85
2021/06/24 09:59:04;;;;;;;25.90;10.80;;;;;;;32.35;49.44;101286.69;4969505;28;20246;-85
2021/06/24 10:01:33;;;;;;;27.98;9.88;;;;;;;33.51;47.95;101462.50;4953939;28;20213;-84
2021/06/24 10:04:00;;;;;;;22.38;10.13;;;;;;;32.37;48.32;101270.44;4985687;28;20198;-85
2021/06/24 10:06:26;;;;;;;23.67;9.50;;;;;;;30.88;47.81;101046.97;4953957;28;20175;-80
2021/06/24 10:08:54;;;;;;;25.42;9.70;;;;;;;32.23;44.95;101257.53;4969841;28;20171;-85
2021/06/24 10:11:23;;;;;;;29.77;9.48;;;;;;;33.30;44.67;101415.94;4969344;28;20195;-85
2021/06/24 10:13:49;;;;;;;21.05;10.25;;;;;;;33.31;46.82;101370.72;4953105;28;20187;-85
2021/06/24 10:16:15;;;;;;;21.98;9.38;;;;;;;33.65;45.06;101397.75;4953458;28;20643;-85
2021/06/24 10:18:51;;;;;;;27.52;10.20;;;;;;;31.06;45.58;101000.16;4956132;28;20238;-79
2021/06/24 10:21:17;;;;;;;18.38;9.40;;;;;;;31.54;45.76;101022.88;4969805;28;20222;-85
2021/06/24 10:23:48;;;;;;;23.33;9.10;;;;;;;33.62;46.06;101340.66;4969938;28;20222;-84
2021/06/24 10:26:14;;;;;;;25.70;10.45;;;;;;;34.08;46.18;101426.25;4969691;28;20190;-79
2021/06/24 10:28:40;;;;;;;27.80;9.23;;;;;;;34.06;45.56;101400.19;4953417;28;20631;-84
2021/06/24 10:31:05;;;;;;;24.50;9.07;;;;;;;33.56;44.14;101322.81;4953424;28;20194;-85
2021/06/24 10:33:31;;;;;;;23.15;9.38;;;;;;;33.12;44.52;101261.91;4969447;28;20182;-84
2021/06/24 10:35:58;;;;;;;32.45;10.13;;;;;;;31.96;45.11;101092.13;4969441;28;20199;-78
2021/06/24 10:38:40;;;;;;;28.33;9.43;;;;;;;33.48;44.84;101314.19;4968619;28;20219;-84
2021/06/24 10:41:06;;;;;;;23.73;9.07;;;;;;;33.72;44.60;101336.59;4969430;28;20217;-85
2021/06/24 10:43:48;;;;;;;28.25;8.68;;;;;;;31.14;42.16;100932.22;4938065;28;20174;-85
2021/06/24 10:46:18;;;;;;;28.95;8.73;;;;;;;33.43;40.84;101259.81;4954106;28;20197;-85
2021/06/24 10:48:43;;;;;;;17.73;9.25;;;;;;;31.12;43.83;100878.38;4954039;28;20179;-86
2021/06/24 10:51:10;;;;;;;22.92;9.25;;;;;;;32.40;43.67;101090.66;4953173;28;20191;-79
2021/06/24 10:53:50;;;;;;;20.98;8.27;;;;;;;34.69;44.22;101421.88;4969009;28;20258;-85
2021/06/24 10:56:26;;;;;;;20.50;8.63;;;;;;;34.63;42.99;101375.25;4969719;28;20175;-85
2021/06/24 10:58:52;;;;;;;24.88;8.68;;;;;;;34.40;42.92;101308.41;4969761;28;20246;-85
2021/06/24 11:01:38;;;;;;;27.00;9.43;;;;;;;34.94;43.04;101416.19;4953676;28;20190;-78
2021/06/24 11:04:04;;;;;;;29.05;9.68;;;;;;;34.65;43.44;101391.97;4953701;28;20187;-83
2021/06/24 11:06:36;;;;;;;23.05;9.27;;;;;;;34.65;43.25;101401.34;4953508;28;20178;-78
2021/06/24 11:09:15;;;;;;;22.05;9.20;;;;;;;34.62;43.81;101387.34;4954379;28;20298;-86
2021/06/24 11:11:44;;;;;;;23.55;8.57;;;;;;;34.78;43.84;101383.06;4969370;28;20218;-81
2021/06/24 11:14:15;;;;;;;24.55;8.25;;;;;;;33.26;42.79;101111.00;4970226;28;20274;-86
2021/06/24 11:16:42;;;;;;;20.25;8.20;;;;;;;33.73;42.70;101108.13;4969788;28;20182;-86
2021/06/24 11:19:11;;;;;;;28.30;8.73;;;;;;;33.77;41.93;101079.75;4966019;28;20227;-81
2021/06/24 11:21:37;;;;;;;26.98;7.95;;;;;;;36.03;40.96;101378.25;4966197;29;20168;-82
2021/06/24 11:24:13;;;;;;;26.20;8.50;;;;;;;35.81;39.41;101322.34;4967326;28;20253;-86
2021/06/24 11:26:40;;;;;;;20.92;7.85;;;;;;;35.62;39.15;101264.47;4954143;29;20191;-81
2021/06/24 11:31:41;;;;;;;22.27;7.40;;;;;;;35.84;36.30;101228.88;4971140;28;20214;-86
2021/06/24 11:36:52;;;;;;;24.58;7.20;;;;;;;36.77;38.31;101292.06;4969958;29;20183;-85
2021/06/24 11:39:32;;;;;;;27.00;7.00;;;;;;;37.10;36.50;101296.19;4985445;28;20254;-81
2021/06/24 11:42:06;;;;;;;23.08;7.03;;;;;;;37.45;35.67;101332.94;4969428;28;20184;-86
2021/06/24 11:44:33;;;;;;;17.73;7.07;;;;;;;36.86;36.09;101207.59;4937955;29;20195;-85
2021/06/24 11:47:01;;;;;;;22.70;7.05;;;;;;;37.49;37.08;101304.34;4953400;29;20192;-83
2021/06/24 12:04:02;;;;;;;20.10;6.78;;;;;;;39.41;33.08;101332.47;4969758;29;20299;-83
2021/06/24 12:06:54;;;;;;;21.23;6.70;;;;;;;39.76;33.48;101336.34;4969154;29;20179;-82
2021/06/24 12:09:22;;;;;;;22.88;7.15;;;;;;;39.84;33.28;101336.13;4970251;28;20184;-81
2021/06/24 12:11:58;;;;;;;20.55;7.20;;;;;;;40.01;35.69;101332.97;4969311;29;20187;-85
2021/06/24 12:14:26;;;;;;;20.00;6.97;;;;;;;40.13;34.28;101325.06;4969149;28;20217;-86
2021/06/24 12:17:10;;;;;;;21.42;6.68;;;;;;;40.31;34.72;101324.16;4970220;28;20176;-86
2021/06/24 12:19:54;;;;;;;31.55;6.65;;;;;;;40.54;33.24;101329.25;4984722;28;20739;-86
2021/06/24 12:22:23;;;;;;;20.65;6.10;;;;;;;40.88;32.71;101325.69;4952979;29;20321;-83
2021/06/24 12:24:49;;;;;;;23.02;6.15;;;;;;;40.99;30.24;101307.53;4985251;28;20262;-85
2021/06/24 12:27:15;;;;;;;21.50;5.85;;;;;;;41.26;29.68;101322.31;4953092;29;20176;-86
2021/06/24 12:29:41;;;;;;;27.10;6.32;;;;;;;41.05;30.38;101258.47;4952721;29;20188;-86
2021/06/24 12:32:07;;;;;;;20.92;6.22;;;;;;;40.96;30.79;101186.66;4984798;28;20199;-86
2021/06/24 12:34:32;;;;;;;18.88;6.05;;;;;;;41.16;29.92;101217.75;4968624;29;20195;-86
2021/06/24 12:36:57;;;;;;;23.38;6.03;;;;;;;41.68;30.04;101266.69;4952557;29;20186;-84
2021/06/24 12:39:23;;;;;;;23.90;6.20;;;;;;;41.70;29.27;101241.38;4968561;29;20215;-82
2021/06/24 12:41:49;;;;;;;22.95;6.25;;;;;;;41.66;29.59;101220.81;4968545;29;20172;-86
2021/06/24 12:44:14;;;;;;;20.95;6.20;;;;;;;40.55;29.26;101025.75;4952526;29;20175;-82
2021/06/24 12:46:40;;;;;;;24.95;6.80;;;;;;;42.21;29.38;101260.44;4968452;29;20176;-86
2021/06/24 12:49:16;;;;;;;20.20;6.28;;;;;;;42.11;29.34;101212.50;4952213;29;20219;-81
2021/06/24 12:51:41;;;;;;;21.50;6.22;;;;;;;41.52;28.93;101082.44;4952395;29;20709;-86
2021/06/24 12:54:17;;;;;;;22.20;5.95;;;;;;;40.65;29.58;100942.13;4952133;29;20207;-86